Crewe, United Kingdom
Current Conditions -  °F | °C
As of 2:50 AM on Thursday 27 Nov 2014 (Local Time) from EGCC Reporting Station
Overcast Overcast  
Wind Chill: 45°   Ceiling: 1900
Heat Index: 45°   Visibility: 4mi
Dew Point: 45°   Wind: 3mph
Humidity: 100%   Direction: 70°ENE
Pressure: 29.68"   Gusts: NA
Location:  53.1°N, 2.44°W
Report Text: EGCC 270250Z 07003KT 6000 OVC019 07/07 Q1005
Loading
Personal Weather Stations






























Interactive Weather Map New forecast layout! Learn more

10-Day Weather Forecast

Advertisements
Track Severe Weather on mobile